METAR Data
IDs: Format: Raw Decoded Include TAF

Data at: 1152 UTC 23 Sep 2018

KGAD 231056Z AUTO 00000KT 9SM CLR 20/20 A3003 RMK AO2 SLP166 T02000200
KGAD 230956Z AUTO 00000KT 10SM CLR 20/20 A3002 RMK AO2 SLP163 T02000200
KGAD 230856Z AUTO 00000KT 10SM CLR 20/20 A3002 RMK AO2 SLP162 T02000200 56004
KGAD 230756Z AUTO 00000KT 10SM CLR 21/21 A3002 RMK AO2 SLP164 T02110211
KGAD 230656Z AUTO 00000KT 10SM CLR 22/22 A3003 RMK AO2 SLP166 T02170217
KGAD 230556Z AUTO 00000KT 10SM CLR 22/22 A3003 RMK AO2 SLP168 T02170217 10272 20217 403280206 58007
KGAD 230456Z AUTO 00000KT 10SM BKN060 23/23 A3004 RMK AO2 SLP171 T02280228
KGAD 230356Z AUTO 00000KT 10SM FEW060 23/23 A3005 RMK AO2 SLP174 T02330233
KGAD 230256Z AUTO 00000KT 10SM SCT060 24/24 A3005 RMK AO2 SLP173 T02440239 51018
KGAD 230156Z AUTO 00000KT 10SM BKN065 24/24 A3004 RMK AO2 SLP170 T02440239
KGAD 230056Z AUTO 00000KT 10SM SCT060 OVC110 25/24 A3002 RMK AO2 SLP163 T02500239
KGAD 222356Z AUTO 00000KT 10SM BKN065 BKN110 27/24 A3000 RMK AO2 SLP157 T02720239 10328 20272 53006
KGAD 222256Z AUTO 00000KT 10SM OVC110 31/22 A2999 RMK AO2 SLP152 T03060217
KGAD 222156Z AUTO 19003KT 10SM FEW100 31/22 A2999 RMK AO2 SLP153 T03110217
KGAD 222056Z AUTO 18005KT 10SM CLR 32/20 A2998 RMK AO2 SLP150 T03220200 56029
KGAD 221956Z AUTO 17006KT 10SM FEW055 33/21 A3000 RMK AO2 SLP157 T03280206
KGAD 221856Z AUTO VRB06KT 10SM BKN050 BKN070 32/21 A3003 RMK AO2 SLP168 T03220211
KGAD 221756Z AUTO VRB03KT 10SM FEW050 32/21 A3007 RMK AO2 SLP180 T03170211 10317 20206 58016
KGAD 221656Z AUTO 13004KT 10SM FEW037 SCT065 31/21 A3009 RMK AO2 SLP188 T03060211
KGAD 221556Z AUTO VRB03KT 10SM CLR 29/23 A3011 RMK AO2 SLP195 T02890228
KGAD 221456Z AUTO 18003KT 10SM CLR 28/23 A3012 RMK AO2 SLP195 T02780228 51005
KGAD 221356Z AUTO 00000KT 10SM CLR 26/22 A3011 RMK AO2 SLP194 T02610222
KGAD 221256Z AUTO 00000KT 10SM CLR 23/23 A3011 RMK AO2 SLP196 T02330228
KGAD 221156Z AUTO 00000KT 10SM CLR 21/21 A3010 RMK AO2 SLP192 T02060206 10244 20206 53005
KGAD 221147Z AUTO 00000KT 3SM BR CLR 21/21 A3010 RMK AO2
KGAD 221143Z AUTO 00000KT 1 3/4SM BR CLR 21/21 A3010 RMK AO2
KGAD 221126Z AUTO 00000KT 2 1/2SM BR CLR 21/21 A3010 RMK AO2
KGAD 221124Z AUTO 00000KT 1SM BR CLR 21/21 A3010 RMK AO2
KGAD 221114Z AUTO 00000KT 1/2SM FG CLR 21/21 A3009 RMK AO2
KGAD 221108Z AUTO 00000KT 1 1/4SM BR CLR 21/21 A3010 RMK AO2
KGAD 221103Z AUTO 00000KT 3/4SM BR CLR 21/21 A3009 RMK AO2
KGAD 221056Z AUTO 00000KT 1SM BR CLR 21/21 A3009 RMK AO2 VIS 1/2V5 SLP189 T02110211
KGAD 221052Z AUTO 00000KT 1 1/2SM BR CLR 21/21 A3009 RMK AO2
KGAD 220956Z AUTO 00000KT 8SM CLR 22/22 A3009 RMK AO2 SLP186 T02170217
KGAD 220856Z AUTO 00000KT 10SM OVC110 23/23 A3009 RMK AO2 SLP185 T02280228 56009
KGAD 220756Z AUTO 00000KT 10SM SCT085 OVC110 23/23 A3009 RMK AO2 SLP189 T02330233
KGAD 220656Z AUTO 00000KT 10SM BKN095 24/24 A3010 RMK AO2 SLP190 T02390239
KGAD 220556Z AUTO 00000KT 10SM OVC090 24/24 A3011 RMK AO2 SLP195 T02390239 10261 20239 403220211 50000
KGAD 220456Z AUTO 00000KT 10SM BKN070 OVC100 24/24 A3012 RMK AO2 SLP197 T02440239
KGAD 220356Z AUTO 35004KT 10SM BKN100 BKN120 24/24 A3012 RMK AO2 SLP197 T02390239
KGAD 220256Z AUTO 00000KT 10SM FEW120 24/24 A3011 RMK AO2 SLP193 T02440244 51014
KGAD 220156Z AUTO 00000KT 10SM BKN110 26/25 A3010 RMK AO2 SLP191 T02560250
KGAD 220056Z AUTO 06004KT 10SM SCT090 BKN110 25/25 A3009 RMK AO2 SLP186 T02500250
KGAD 212356Z AUTO 00000KT 10SM SCT095 SCT120 26/24 A3007 RMK AO2 SLP182 60000 T02610244 10322 20261 53003